Time;durP1;ratioP1;P1;durP2;ratioP2;P2;SDS_P1;SDS_P2;PMS_P1;PMS_P2;Temp;Humidity;BMP_temperature;BMP_pressure;BME280_temperature;BME280_humidity;BME280_pressure;Samples;Min_cycle;Max_cycle;Signal;HPM_P1;HPM_P2
2021/12/08 00:00:43;;;;;;;3.15;0.10;;;20.30;45.40;;;;;;5077053;28;20052;-46
2021/12/08 00:03:13;;;;;;;1.67;0.10;;;20.30;45.30;;;;;;5081333;28;20037;-48
2021/12/08 00:05:41;;;;;;;2.92;0.20;;;20.30;45.20;;;;;;5075660;28;20127;-46
2021/12/08 00:08:11;;;;;;;1.17;0.47;;;20.30;45.20;;;;;;5085882;28;20047;-51
2021/12/08 00:13:02;;;;;;;1.10;0.20;;;20.30;45.10;;;;;;5077644;28;20059;-49
2021/12/08 00:13:50;;;;;;;1.58;0.22;;;20.30;45.10;;;;;;5063381;28;20044;-45
2021/12/08 00:16:17;;;;;;;1.42;0.28;;;20.30;45.10;;;;;;5083866;28;20040;-49
2021/12/08 00:18:47;;;;;;;0.77;0.30;;;20.30;45.00;;;;;;5078411;28;20067;-46
2021/12/08 00:21:16;;;;;;;1.13;0.22;;;20.30;44.80;;;;;;5083094;28;20068;-46
2021/12/08 00:23:44;;;;;;;4.50;0.30;;;20.40;44.70;;;;;;5087328;28;20043;-47
2021/12/08 00:26:13;;;;;;;1.65;0.25;;;20.40;44.60;;;;;;5079508;28;20044;-46
2021/12/08 00:28:40;;;;;;;1.10;0.32;;;20.40;44.60;;;;;;5074316;28;20049;-47
2021/12/08 00:31:07;;;;;;;1.15;0.43;;;20.40;44.40;;;;;;5079616;28;20554;-47
2021/12/08 00:33:35;;;;;;;1.27;0.20;;;20.40;44.30;;;;;;5082334;28;20650;-48
2021/12/08 00:36:05;;;;;;;1.90;0.50;;;20.40;44.30;;;;;;5072275;28;20036;-48
2021/12/08 00:38:33;;;;;;;3.15;0.38;;;20.40;44.40;;;;;;5079003;28;20039;-46
2021/12/08 00:41:00;;;;;;;3.15;0.55;;;20.30;44.50;;;;;;5075474;28;20140;-46
2021/12/08 00:43:28;;;;;;;1.70;0.38;;;20.10;44.50;;;;;;5077918;28;20429;-46
2021/12/08 00:45:56;;;;;;;7.65;1.55;;;20.00;44.70;;;;;;5080402;28;20316;-46
2021/12/08 00:48:23;;;;;;;2.03;0.50;;;19.90;44.80;;;;;;5077025;28;20052;-48
2021/12/08 00:50:52;;;;;;;0.85;0.30;;;19.90;45.00;;;;;;5084058;28;20079;-47
2021/12/08 00:53:19;;;;;;;2.13;0.95;;;19.80;45.20;;;;;;5086277;28;20040;-46
2021/12/08 00:55:46;;;;;;;1.30;0.63;;;19.70;45.40;;;;;;5081233;28;20036;-46
2021/12/08 00:58:14;;;;;;;0.82;0.25;;;19.60;45.40;;;;;;5082714;28;20045;-48
2021/12/08 01:00:45;;;;;;;1.45;0.60;;;19.60;45.70;;;;;;5076030;28;20119;-46
2021/12/08 01:03:14;;;;;;;1.73;0.73;;;19.50;45.70;;;;;;5081235;28;20045;-46
2021/12/08 01:05:45;;;;;;;2.15;0.63;;;19.40;45.80;;;;;;5074461;28;20079;-46
2021/12/08 01:08:12;;;;;;;1.08;0.60;;;19.40;45.90;;;;;;5085004;28;20047;-48
2021/12/08 01:10:42;;;;;;;1.83;0.95;;;19.40;46.10;;;;;;5058773;28;20429;-46
2021/12/08 01:13:12;;;;;;;1.63;0.57;;;19.30;46.10;;;;;;5078166;28;20091;-49
2021/12/08 01:15:45;;;;;;;0.52;0.52;;;19.30;46.20;;;;;;5081305;28;20040;-45
2021/12/08 01:18:12;;;;;;;0.85;0.45;;;19.20;46.20;;;;;;5071529;28;20048;-47
2021/12/08 01:20:40;;;;;;;2.67;0.73;;;19.20;46.80;;;;;;5080535;28;20044;-46
2021/12/08 01:23:07;;;;;;;2.80;0.88;;;19.10;46.40;;;;;;5072691;28;20474;-48
2021/12/08 01:25:34;;;;;;;1.52;0.65;;;19.10;46.50;;;;;;5079727;28;20458;-46
2021/12/08 01:28:01;;;;;;;0.70;0.70;;;19.10;46.50;;;;;;5077967;28;20032;-47
2021/12/08 01:30:28;;;;;;;1.30;0.47;;;19.00;46.60;;;;;;5075679;28;20100;-48
2021/12/08 01:32:57;;;;;;;2.20;0.52;;;19.10;46.70;;;;;;5082450;28;20131;-46
2021/12/08 01:35:25;;;;;;;2.53;0.65;;;19.00;46.60;;;;;;5071280;28;20155;-47
2021/12/08 01:37:52;;;;;;;1.40;0.32;;;19.00;46.60;;;;;;5079061;28;20466;-49
2021/12/08 01:40:19;;;;;;;0.55;0.35;;;18.90;46.70;;;;;;5080936;28;20049;-46
2021/12/08 01:42:50;;;;;;;0.85;0.70;;;18.90;46.70;;;;;;5076304;28;20032;-46
2021/12/08 01:48:07;;;;;;;3.00;0.73;;;18.90;46.80;;;;;;5079706;28;20036;-45
2021/12/08 01:50:35;;;;;;;0.88;0.52;;;18.90;46.80;;;;;;5077469;28;20059;-48
2021/12/08 01:53:04;;;;;;;1.23;0.63;;;18.80;46.70;;;;;;5073031;28;20047;-47
2021/12/08 01:55:32;;;;;;;1.38;0.47;;;18.80;46.80;;;;;;5079743;28;20032;-48
2021/12/08 01:57:59;;;;;;;1.65;0.50;;;18.80;46.80;;;;;;5084216;28;20044;-46
2021/12/08 02:00:30;;;;;;;1.83;0.60;;;18.80;46.80;;;;;;5076032;28;20056;-47
2021/12/08 02:02:57;;;;;;;1.65;0.73;;;18.80;46.80;;;;;;5079834;28;20040;-54
2021/12/08 02:05:26;;;;;;;3.72;0.82;;;18.80;46.80;;;;;;5073431;28;20051;-51
2021/12/08 02:07:53;;;;;;;2.50;0.68;;;18.80;46.70;;;;;;5061326;28;20043;-46
2021/12/08 02:10:21;;;;;;;6.13;0.40;;;18.70;46.70;;;;;;5073625;28;20045;-50
2021/12/08 02:12:48;;;;;;;3.90;0.68;;;18.70;46.80;;;;;;5076834;28;20044;-48
2021/12/08 02:15:17;;;;;;;2.17;0.50;;;18.70;46.80;;;;;;5080223;28;20082;-47
2021/12/08 02:17:46;;;;;;;0.73;0.50;;;18.70;46.90;;;;;;5069839;28;20481;-48
2021/12/08 02:20:16;;;;;;;1.95;0.98;;;18.70;46.80;;;;;;5077360;28;20059;-47
2021/12/08 02:22:44;;;;;;;1.38;0.20;;;18.70;46.80;;;;;;5077183;28;20548;-47
2021/12/08 02:25:15;;;;;;;0.88;0.60;;;18.70;46.90;;;;;;5075140;28;20040;-47
2021/12/08 02:27:42;;;;;;;2.55;0.73;;;18.60;46.70;;;;;;5079999;28;20032;-47
2021/12/08 02:30:18;;;;;;;1.00;0.60;;;18.60;46.80;;;;;;5072414;28;20036;-52
2021/12/08 02:46:44;;;;;;;0.77;0.60;;;18.50;46.90;;;;;;5075134;28;20106;-46
2021/12/08 02:49:11;;;;;;;1.63;0.73;;;18.50;46.80;;;;;;5079963;28;20040;-50
2021/12/08 02:51:38;;;;;;;1.48;0.80;;;18.50;46.70;;;;;;5081928;28;20032;-51
2021/12/08 02:54:07;;;;;;;1.90;0.63;;;18.60;46.90;;;;;;5071318;28;20048;-49
2021/12/08 02:56:35;;;;;;;2.00;0.50;;;18.50;46.70;;;;;;5080329;28;20440;-48
2021/12/08 02:59:02;;;;;;;0.77;0.40;;;18.50;46.60;;;;;;5066800;28;20044;-51
2021/12/08 03:01:30;;;;;;;4.45;0.75;;;18.50;46.70;;;;;;5074949;28;20038;-46
2021/12/08 03:03:57;;;;;;;2.65;0.95;;;18.50;46.70;;;;;;5080926;28;20583;-48
2021/12/08 03:06:24;;;;;;;2.78;0.68;;;18.50;46.60;;;;;;5075829;28;20032;-46
2021/12/08 03:08:52;;;;;;;1.23;0.55;;;18.50;46.60;;;;;;5085689;28;20043;-51
2021/12/08 03:11:20;;;;;;;1.08;0.85;;;18.50;46.60;;;;;;5085152;28;20046;-46
2021/12/08 03:14:01;;;;;;;0.60;0.32;;;18.50;46.50;;;;;;5082229;28;20573;-48
2021/12/08 03:16:29;;;;;;;1.13;1.00;;;18.50;46.50;;;;;;5072843;28;20579;-46
2021/12/08 03:18:56;;;;;;;1.70;0.60;;;18.50;46.70;;;;;;5072654;28;20413;-47
2021/12/08 03:21:29;;;;;;;3.42;0.63;;;18.40;46.60;;;;;;5082457;28;20051;-47
2021/12/08 03:24:08;;;;;;;1.23;0.47;;;18.50;46.70;;;;;;5077996;28;20036;-46
2021/12/08 03:26:46;;;;;;;0.57;0.35;;;18.40;46.70;;;;;;5080860;28;20043;-48
2021/12/08 03:29:25;;;;;;;1.63;0.88;;;18.40;46.60;;;;;;5076027;28;20045;-49
2021/12/08 03:31:54;;;;;;;1.60;1.42;;;18.40;46.60;;;;;;5082692;28;20048;-46
2021/12/08 03:34:25;;;;;;;1.95;0.85;;;18.40;46.60;;;;;;5078870;28;20176;-46
2021/12/08 03:36:53;;;;;;;2.63;0.35;;;18.40;46.60;;;;;;5078396;28;20843;-48
2021/12/08 03:39:20;;;;;;;0.65;0.63;;;18.40;46.60;;;;;;5086395;28;20462;-46
2021/12/08 03:41:48;;;;;;;3.03;0.47;;;18.40;46.60;;;;;;5078743;28;20419;-48
2021/12/08 03:44:16;;;;;;;2.28;0.40;;;18.40;46.50;;;;;;5082419;28;20039;-46
2021/12/08 03:46:44;;;;;;;0.75;0.75;;;18.40;46.50;;;;;;5078897;28;20033;-47
2021/12/08 03:49:14;;;;;;;2.42;0.47;;;18.40;46.50;;;;;;5077369;28;20580;-50
2021/12/08 03:51:41;;;;;;;1.45;0.40;;;18.50;46.50;;;;;;5081555;28;20050;-48
2021/12/08 03:54:10;;;;;;;1.27;0.50;;;18.40;46.50;;;;;;5075335;28;20047;-47
2021/12/08 03:56:37;;;;;;;1.20;0.20;;;18.40;46.40;;;;;;5083350;28;20055;-48
2021/12/08 03:59:06;;;;;;;1.15;0.30;;;18.40;46.40;;;;;;5073453;28;20417;-48
2021/12/08 04:01:35;;;;;;;0.73;0.73;;;18.40;46.40;;;;;;5079366;28;20123;-47
2021/12/08 04:04:06;;;;;;;0.75;0.20;;;18.40;46.40;;;;;;5084655;28;20381;-49
2021/12/08 04:06:41;;;;;;;1.55;0.38;;;18.40;46.50;;;;;;5075859;28;20649;-48
2021/12/08 04:09:16;;;;;;;1.05;0.28;;;18.40;46.50;;;;;;5075167;28;20064;-48
2021/12/08 04:11:45;;;;;;;1.65;0.25;;;18.40;46.40;;;;;;5074961;28;20064;-47
2021/12/08 04:14:17;;;;;;;0.60;0.10;;;18.40;46.40;;;;;;5084879;28;20048;-46
2021/12/08 04:16:48;;;;;;;3.00;0.28;;;18.40;46.40;;;;;;5074703;28;20127;-48
2021/12/08 04:19:17;;;;;;;1.50;0.30;;;18.40;46.40;;;;;;5082576;28;20059;-47
2021/12/08 04:21:46;;;;;;;2.17;0.30;;;18.40;46.50;;;;;;5087417;28;20047;-48
2021/12/08 04:24:14;;;;;;;2.80;0.22;;;18.40;46.40;;;;;;5077162;28;20044;-48
2021/12/08 04:26:44;;;;;;;2.75;0.15;;;18.40;46.50;;;;;;5081294;28;20040;-51
2021/12/08 04:29:14;;;;;;;0.75;0.20;;;18.40;46.40;;;;;;5073490;28;20109;-49
2021/12/08 04:31:43;;;;;;;1.52;0.25;;;18.40;46.50;;;;;;5086841;28;20046;-50
2021/12/08 04:34:16;;;;;;;3.60;0.17;;;18.40;46.50;;;;;;5076537;28;20856;-52
2021/12/08 04:36:47;;;;;;;2.83;0.43;;;18.40;46.50;;;;;;5078366;28;20351;-47
2021/12/08 04:39:21;;;;;;;2.47;0.45;;;18.40;46.40;;;;;;5083783;28;20050;-49
2021/12/08 04:41:55;;;;;;;1.50;0.43;;;18.40;46.40;;;;;;5071963;28;20044;-48
2021/12/08 04:44:31;;;;;;;3.40;0.43;;;18.40;46.30;;;;;;5080137;28;20044;-48
2021/12/08 04:47:18;;;;;;;;;;;18.40;46.40;;;;;;5077045;28;20090;-47
2021/12/08 04:52:57;;;;;;;0.85;0.20;;;18.30;46.50;;;;;;4975260;28;20058;-45
2021/12/08 05:01:19;;;;;;;0.35;0.10;;;18.30;46.50;;;;;;4973558;28;20042;-51
2021/12/08 05:04:07;;;;;;;0.90;0.10;;;18.30;46.40;;;;;;4983916;28;20142;-46
2021/12/08 05:06:44;;;;;;;0.95;0.32;;;18.30;46.40;;;;;;4977089;28;20519;-46
2021/12/08 05:09:16;;;;;;;2.17;0.28;;;18.30;46.50;;;;;;4983800;28;20046;-50
2021/12/08 05:11:49;;;;;;;1.95;0.20;;;18.30;46.50;;;;;;4971799;28;20050;-48
2021/12/08 05:14:22;;;;;;;2.03;0.32;;;18.30;46.50;;;;;;4982534;28;20048;-49
2021/12/08 05:16:55;;;;;;;2.40;0.52;;;18.30;46.50;;;;;;4972617;28;20051;-49
2021/12/08 05:19:24;;;;;;;0.68;0.13;;;18.30;46.40;;;;;;4979844;28;20461;-48
2021/12/08 05:21:55;;;;;;;1.27;0.30;;;18.30;46.50;;;;;;4983052;28;20423;-50
2021/12/08 05:24:28;;;;;;;1.85;0.20;;;18.30;46.40;;;;;;5051109;28;20040;-46
2021/12/08 05:27:01;;;;;;;2.35;0.17;;;18.30;46.50;;;;;;5083793;28;20036;-48
2021/12/08 05:29:35;;;;;;;1.02;0.20;;;18.30;46.50;;;;;;5073494;28;20055;-48
2021/12/08 05:32:05;;;;;;;0.80;0.20;;;18.30;46.40;;;;;;5075933;28;20508;-47
2021/12/08 05:34:33;;;;;;;0.77;0.10;;;18.30;46.40;;;;;;5074241;28;20044;-49
2021/12/08 05:37:01;;;;;;;0.40;0.10;;;18.30;46.40;;;;;;5077612;28;20044;-47
2021/12/08 05:39:31;;;;;;;0.65;0.10;;;18.30;46.40;;;;;;5077378;28;20067;-47
2021/12/08 05:42:03;;;;;;;3.05;0.10;;;18.30;46.30;;;;;;5071056;28;20055;-46
2021/12/08 05:44:30;;;;;;;1.25;0.10;;;18.30;46.30;;;;;;5080042;28;20108;-46
2021/12/08 05:47:02;;;;;;;1.10;0.30;;;18.30;46.30;;;;;;5076417;28;20369;-46
2021/12/08 05:49:30;;;;;;;0.32;0.10;;;18.30;46.30;;;;;;5077065;28;20068;-46
2021/12/08 05:51:58;;;;;;;1.23;0.10;;;18.30;46.30;;;;;;5079044;28;20048;-47
2021/12/08 05:54:29;;;;;;;0.47;0.15;;;18.30;46.30;;;;;;5075584;28;20064;-48
2021/12/08 05:57:02;;;;;;;0.10;0.10;;;18.30;46.30;;;;;;5082299;28;20503;-48
2021/12/08 05:59:29;;;;;;;1.75;0.10;;;18.30;46.30;;;;;;5069859;28;20044;-48
2021/12/08 06:01:59;;;;;;;1.98;0.17;;;18.30;46.20;;;;;;5079637;28;20051;-49
2021/12/08 06:04:29;;;;;;;3.72;0.10;;;18.30;46.20;;;;;;5079864;28;20037;-46
2021/12/08 06:06:58;;;;;;;0.65;0.45;;;18.30;46.30;;;;;;5075040;28;20043;-48
2021/12/08 06:09:27;;;;;;;0.28;0.15;;;18.30;46.20;;;;;;5081471;28;20040;-51
2021/12/08 06:11:58;;;;;;;1.38;0.45;;;18.30;46.30;;;;;;5073127;28;20584;-50
2021/12/08 06:14:32;;;;;;;1.58;0.10;;;18.30;46.30;;;;;;5083698;28;20105;-48
2021/12/08 06:17:01;;;;;;;0.80;0.10;;;18.30;46.30;;;;;;5081888;28;20040;-47
2021/12/08 06:19:29;;;;;;;1.30;0.20;;;18.30;46.30;;;;;;5079573;28;20050;-51
2021/12/08 06:21:58;;;;;;;1.15;0.25;;;18.30;46.20;;;;;;5072941;28;20037;-50
2021/12/08 06:24:25;;;;;;;3.13;0.40;;;18.30;46.20;;;;;;5074029;28;20150;-52
2021/12/08 06:26:54;;;;;;;0.40;0.15;;;18.30;46.20;;;;;;5078915;28;20047;-52
2021/12/08 06:29:21;;;;;;;0.85;0.10;;;18.30;46.20;;;;;;5072552;28;20058;-47
2021/12/08 06:31:52;;;;;;;1.88;0.20;;;18.30;46.20;;;;;;5077620;28;20036;-51
2021/12/08 06:34:20;;;;;;;0.20;0.20;;;18.30;46.10;;;;;;5080032;28;20127;-48
2021/12/08 06:36:50;;;;;;;0.22;0.10;;;18.30;46.20;;;;;;5076876;28;20070;-50
2021/12/08 06:39:23;;;;;;;0.75;0.10;;;18.30;46.20;;;;;;5064071;28;20542;-47
2021/12/08 06:41:53;;;;;;;2.38;0.25;;;18.30;46.10;;;;;;5075558;28;20515;-47
2021/12/08 06:44:24;;;;;;;2.25;0.10;;;18.20;46.10;;;;;;5078443;28;20044;-49
2021/12/08 06:46:53;;;;;;;1.63;0.10;;;18.20;46.10;;;;;;5077061;28;20123;-50
2021/12/08 06:49:21;;;;;;;0.68;0.28;;;18.20;46.80;;;;;;5075724;28;20051;-48
2021/12/08 06:51:52;;;;;;;0.47;0.10;;;18.20;46.00;;;;;;5079129;28;20055;-52
2021/12/08 06:54:25;;;;;;;1.15;0.10;;;18.20;46.10;;;;;;5074500;28;20120;-50
2021/12/08 06:56:59;;;;;;;0.43;0.10;;;18.20;46.10;;;;;;5063311;28;20054;-47
2021/12/08 06:59:33;;;;;;;1.15;0.10;;;18.20;46.10;;;;;;5088937;28;20040;-47
2021/12/08 07:02:07;;;;;;;1.63;0.45;;;18.20;46.30;;;;;;5095127;28;20280;-47
2021/12/08 07:04:53;;;;;;;0.20;0.10;;;18.10;46.30;;;;;;5095186;28;20061;-50
2021/12/08 07:07:25;;;;;;;3.47;0.10;;;18.10;46.30;;;;;;5078876;28;20523;-51
2021/12/08 07:09:57;;;;;;;1.55;0.22;;;18.10;46.40;;;;;;5081205;28;20131;-48
2021/12/08 07:12:30;;;;;;;1.02;0.10;;;18.10;46.30;;;;;;5080320;28;20032;-49
2021/12/08 07:15:01;;;;;;;1.42;0.10;;;18.20;46.50;;;;;;5080776;28;20865;-48
2021/12/08 07:17:33;;;;;;;0.35;0.10;;;18.10;46.40;;;;;;5070613;28;20708;-50
2021/12/08 07:20:15;;;;;;;1.65;0.10;;;18.10;46.60;;;;;;5076407;28;20068;-49
2021/12/08 07:22:46;;;;;;;1.95;0.95;;;18.10;47.10;;;;;;5074101;28;20049;-52
2021/12/08 07:25:16;;;;;;;1.10;0.10;;;18.10;47.40;;;;;;5079058;28;20040;-45
2021/12/08 07:27:44;;;;;;;2.05;0.57;;;18.10;47.70;;;;;;5079977;28;20042;-48
2021/12/08 07:30:14;;;;;;;1.58;0.15;;;18.00;47.80;;;;;;5064473;28;20048;-51
2021/12/08 07:32:42;;;;;;;2.47;0.40;;;17.90;47.90;;;;;;5064884;28;20036;-47
2021/12/08 07:35:14;;;;;;;0.52;0.10;;;17.90;48.10;;;;;;5074070;28;20039;-49
2021/12/08 07:37:41;;;;;;;2.38;0.20;;;17.90;48.40;;;;;;5083078;28;20079;-47
2021/12/08 07:40:13;;;;;;;3.65;0.10;;;17.80;48.50;;;;;;5074064;28;20044;-50
2021/12/08 07:42:49;;;;;;;7.40;0.10;;;17.70;48.60;;;;;;5077994;28;20052;-49
2021/12/08 07:45:21;;;;;;;3.55;0.15;;;17.70;48.80;;;;;;5074197;28;20504;-48
2021/12/08 07:47:51;;;;;;;1.33;0.10;;;17.60;48.90;;;;;;5080001;28;20113;-51
2021/12/08 07:50:24;;;;;;;0.50;0.10;;;17.60;49.10;;;;;;5074486;28;20040;-49
2021/12/08 07:52:53;;;;;;;0.25;0.25;;;17.50;49.30;;;;;;5076965;28;20041;-51
2021/12/08 07:55:25;;;;;;;3.97;0.25;;;17.50;49.50;;;;;;5077540;28;20424;-48
2021/12/08 07:57:55;;;;;;;4.43;0.20;;;17.40;49.80;;;;;;5081394;28;20064;-51
2021/12/08 08:00:26;;;;;;;7.97;0.43;;;17.40;50.10;;;;;;5079571;28;20052;-47
2021/12/08 08:02:57;;;;;;;7.57;0.73;;;17.30;50.30;;;;;;5076328;28;20101;-57
2021/12/08 08:05:29;;;;;;;7.93;0.30;;;17.30;50.70;;;;;;5073729;28;20139;-54
2021/12/08 08:07:58;;;;;;;10.52;0.25;;;17.20;50.80;;;;;;5084568;28;20431;-51
2021/12/08 08:10:28;;;;;;;3.40;0.28;;;17.20;50.90;;;;;;5078598;28;20128;-56
2021/12/08 08:13:01;;;;;;;10.73;0.75;;;17.20;51.00;;;;;;5082595;28;20554;-56
2021/12/08 08:15:32;;;;;;;4.70;0.40;;;17.10;51.00;;;;;;5078529;28;20040;-56
2021/12/08 08:18:06;;;;;;;10.60;0.98;;;17.10;51.10;;;;;;5074626;28;20115;-57
2021/12/08 08:20:35;;;;;;;2.33;0.63;;;17.10;51.10;;;;;;5076096;28;20073;-55
2021/12/08 08:23:05;;;;;;;4.05;0.60;;;17.00;51.10;;;;;;5069121;28;20850;-54
2021/12/08 08:25:38;;;;;;;11.18;1.08;;;17.00;51.20;;;;;;5088330;28;20131;-56
2021/12/08 08:28:07;;;;;;;5.47;1.27;;;17.00;51.20;;;;;;5082936;28;20064;-56
2021/12/08 08:30:38;;;;;;;7.97;0.90;;;16.90;51.20;;;;;;5074752;28;20055;-57
2021/12/08 08:33:06;;;;;;;8.40;0.95;;;16.90;51.20;;;;;;5072502;28;20044;-56
2021/12/08 08:35:37;;;;;;;5.25;0.57;;;16.90;51.20;;;;;;5071859;28;20053;-55
2021/12/08 08:38:07;;;;;;;1.67;0.30;;;16.90;51.30;;;;;;5076538;28;20123;-51
2021/12/08 08:40:38;;;;;;;1.77;0.30;;;16.80;51.30;;;;;;5075673;28;20163;-54
2021/12/08 08:43:08;;;;;;;5.22;1.75;;;16.80;51.40;;;;;;5075761;28;20052;-55
2021/12/08 08:45:40;;;;;;;3.22;0.63;;;16.80;51.40;;;;;;5078403;28;20032;-57
2021/12/08 08:48:10;;;;;;;3.13;0.60;;;16.80;51.40;;;;;;5075875;28;20036;-55
2021/12/08 08:50:41;;;;;;;2.35;0.55;;;16.70;51.40;;;;;;5072088;28;20040;-56
2021/12/08 08:53:10;;;;;;;4.82;1.52;;;16.70;51.40;;;;;;5071693;28;20043;-55
2021/12/08 08:55:41;;;;;;;3.15;1.23;;;16.70;51.40;;;;;;5080814;28;20054;-56
2021/12/08 08:58:11;;;;;;;5.65;0.50;;;16.70;51.40;;;;;;5076613;28;20043;-56
2021/12/08 09:00:43;;;;;;;4.18;1.02;;;16.70;51.40;;;;;;5079568;28;20036;-56
2021/12/08 09:03:14;;;;;;;6.45;0.95;;;16.60;51.30;;;;;;5075604;28;20085;-51
2021/12/08 09:05:49;;;;;;;5.15;1.30;;;16.60;51.30;;;;;;5076959;28;20032;-52
2021/12/08 09:08:17;;;;;;;5.93;1.50;;;16.70;51.40;;;;;;5072996;28;20037;-54
2021/12/08 09:10:52;;;;;;;2.03;0.65;;;16.60;51.30;;;;;;5074452;28;20040;-57
2021/12/08 09:13:24;;;;;;;3.40;0.50;;;16.60;51.30;;;;;;5063805;28;20048;-54
2021/12/08 09:15:55;;;;;;;1.92;0.90;;;16.60;51.30;;;;;;5078400;28;20559;-54
2021/12/08 09:18:29;;;;;;;3.92;1.67;;;16.60;51.30;;;;;;5074983;28;20603;-55
2021/12/08 09:21:12;;;;;;;3.67;0.95;;;16.60;51.30;;;;;;5073966;28;20044;-56
2021/12/08 09:23:47;;;;;;;3.70;1.00;;;16.60;51.40;;;;;;5071459;28;20059;-53
2021/12/08 09:26:19;;;;;;;5.32;0.68;;;16.60;51.40;;;;;;5076968;28;20468;-56
2021/12/08 09:28:51;;;;;;;7.70;1.08;;;16.60;51.40;;;;;;5075425;28;20056;-55
2021/12/08 09:31:25;;;;;;;2.75;1.35;;;16.60;51.30;;;;;;5073729;28;20524;-55
2021/12/08 09:34:00;;;;;;;1.73;0.80;;;16.50;51.90;;;;;;5074059;28;20040;-57
2021/12/08 09:36:31;;;;;;;2.75;1.70;;;16.60;51.30;;;;;;5075694;28;20044;-53
2021/12/08 09:39:05;;;;;;;7.57;2.22;;;16.50;51.30;;;;;;5073939;28;20480;-52
2021/12/08 09:41:37;;;;;;;2.25;1.75;;;16.60;51.30;;;;;;5071128;28;20044;-54
2021/12/08 09:44:10;;;;;;;3.05;0.88;;;16.50;51.30;;;;;;5077651;28;20040;-54
2021/12/08 09:46:40;;;;;;;2.47;0.70;;;16.50;51.20;;;;;;5078372;28;20047;-53
2021/12/08 09:49:09;;;;;;;2.10;1.20;;;16.50;51.20;;;;;;5075341;28;20048;-54
2021/12/08 09:51:37;;;;;;;3.58;1.05;;;16.60;51.30;;;;;;5075460;28;20040;-55
2021/12/08 09:54:06;;;;;;;2.72;0.93;;;16.60;51.30;;;;;;5085825;28;20554;-56
2021/12/08 09:56:34;;;;;;;3.55;1.23;;;16.60;51.30;;;;;;5080178;28;20779;-56
2021/12/08 09:59:03;;;;;;;4.65;1.25;;;16.60;51.20;;;;;;5083314;28;20455;-57
2021/12/08 10:01:34;;;;;;;3.97;1.25;;;16.60;51.20;;;;;;5078022;28;20501;-56
2021/12/08 10:04:01;;;;;;;0.95;0.57;;;16.60;51.10;;;;;;5080851;28;20498;-51
2021/12/08 10:06:29;;;;;;;1.67;0.80;;;16.60;51.00;;;;;;5077728;28;20032;-54
2021/12/08 10:08:58;;;;;;;2.78;0.85;;;16.60;51.00;;;;;;5072279;28;20044;-54
2021/12/08 10:11:27;;;;;;;1.80;0.70;;;16.60;50.90;;;;;;5073172;28;20127;-56
2021/12/08 10:13:55;;;;;;;0.82;0.57;;;16.70;50.90;;;;;;5079395;28;20078;-56
2021/12/08 10:16:22;;;;;;;3.15;1.05;;;16.70;50.90;;;;;;5076675;28;20043;-56
2021/12/08 10:18:52;;;;;;;3.58;0.68;;;16.70;50.70;;;;;;5076356;28;20052;-54
2021/12/08 10:21:20;;;;;;;1.55;0.60;;;16.80;50.70;;;;;;5074682;28;20056;-54
2021/12/08 10:23:48;;;;;;;3.08;0.73;;;16.80;50.60;;;;;;5070317;28;20039;-53
2021/12/08 10:26:18;;;;;;;2.30;0.70;;;16.80;50.60;;;;;;5073303;28;20532;-55
2021/12/08 10:28:50;;;;;;;5.22;1.05;;;16.90;50.60;;;;;;5074279;28;20044;-55
2021/12/08 10:31:26;;;;;;;3.50;0.63;;;16.90;50.50;;;;;;5074189;28;20048;-55
2021/12/08 10:34:01;;;;;;;3.47;0.30;;;16.90;50.30;;;;;;5072886;28;20429;-52
2021/12/08 10:36:45;;;;;;;1.45;0.63;;;17.00;50.90;;;;;;5075001;28;20048;-57
2021/12/08 10:39:23;;;;;;;2.65;1.08;;;17.00;50.20;;;;;;5083831;28;20040;-57
2021/12/08 10:41:58;;;;;;;0.63;0.30;;;17.10;50.10;;;;;;5070585;28;20134;-55
2021/12/08 10:44:28;;;;;;;0.73;0.32;;;17.10;50.00;;;;;;5071554;28;20048;-56
2021/12/08 10:46:58;;;;;;;2.95;0.50;;;17.20;50.40;;;;;;5080085;28;20082;-55
2021/12/08 10:54:26;;;;;;;2.00;0.40;;;17.20;49.70;;;;;;5074145;28;20425;-57
2021/12/08 10:55:04;;;;;;;1.95;0.70;;;17.30;49.50;;;;;;5079209;28;20039;-55
2021/12/08 10:57:34;;;;;;;0.95;0.57;;;17.40;49.30;;;;;;5078006;28;20439;-56
2021/12/08 11:00:09;;;;;;;0.80;0.20;;;17.50;49.20;;;;;;5071014;28;20075;-56
2021/12/08 11:02:47;;;;;;;0.95;0.47;;;17.50;49.00;;;;;;5069292;28;20044;-56
2021/12/08 11:05:32;;;;;;;2.50;0.52;;;17.60;48.90;;;;;;5057365;28;20074;-56
2021/12/08 11:08:02;;;;;;;1.05;0.20;;;17.60;48.70;;;;;;5057870;28;20106;-57
2021/12/08 11:10:29;;;;;;;0.98;0.25;;;17.70;48.60;;;;;;5075384;28;20041;-55
2021/12/08 11:12:59;;;;;;;3.25;0.30;;;17.80;48.60;;;;;;5077982;28;20153;-55
2021/12/08 11:15:28;;;;;;;1.60;0.30;;;17.80;48.40;;;;;;5076135;28;20044;-56
2021/12/08 11:18:15;;;;;;;2.20;0.85;;;17.90;48.20;;;;;;5083457;28;20067;-55
2021/12/08 11:20:50;;;;;;;0.40;0.20;;;17.90;48.00;;;;;;5070473;28;20063;-55
2021/12/08 11:23:39;;;;;;;2.43;0.27;;;18.00;47.90;;;;;;5069686;28;20041;-57
2021/12/08 11:26:23;;;;;;;1.38;0.20;;;18.10;47.80;;;;;;5072018;28;20044;-56
2021/12/08 11:29:00;;;;;;;0.30;0.22;;;18.20;47.70;;;;;;5074301;28;20048;-55
2021/12/08 11:31:34;;;;;;;1.50;0.20;;;18.20;47.50;;;;;;5072109;28;20059;-56
2021/12/08 11:34:05;;;;;;;4.43;1.30;;;18.30;47.30;;;;;;5072979;28;20530;-52
2021/12/08 11:36:37;;;;;;;1.05;0.20;;;18.40;47.20;;;;;;5075118;28;20050;-52
2021/12/08 11:39:12;;;;;;;0.50;0.30;;;18.40;47.00;;;;;;5072810;28;20544;-56
2021/12/08 11:41:43;;;;;;;0.30;0.17;;;18.50;46.80;;;;;;5084536;28;20044;-56
2021/12/08 11:44:17;;;;;;;2.25;0.10;;;18.50;46.70;;;;;;5072269;28;20049;-56
2021/12/08 11:46:48;;;;;;;1.70;0.30;;;18.60;46.70;;;;;;5079381;28;20064;-55
2021/12/08 11:49:15;;;;;;;1.27;0.75;;;18.60;46.40;;;;;;5059715;28;20041;-53
2021/12/08 11:51:54;;;;;;;2.75;0.40;;;18.70;46.30;;;;;;5078311;28;20132;-55
2021/12/08 11:54:26;;;;;;;1.50;0.10;;;18.70;46.20;;;;;;5078400;28;20587;-52
2021/12/08 11:57:00;;;;;;;3.58;0.43;;;18.80;46.10;;;;;;5081781;28;20151;-55
2021/12/08 11:59:28;;;;;;;0.35;0.20;;;18.80;46.00;;;;;;5074152;28;20081;-55
2021/12/08 12:01:55;;;;;;;2.08;0.40;;;18.90;45.90;;;;;;5076482;28;20064;-55
2021/12/08 12:04:22;;;;;;;1.73;0.40;;;18.90;45.70;;;;;;5083630;28;20087;-55
2021/12/08 12:06:51;;;;;;;1.20;0.20;;;19.00;45.70;;;;;;5079076;28;20041;-56
2021/12/08 12:09:19;;;;;;;0.60;0.10;;;19.00;45.50;;;;;;5076439;28;20048;-56
2021/12/08 12:11:48;;;;;;;1.65;0.20;;;19.00;45.40;;;;;;5076739;28;20412;-57
2021/12/08 12:14:16;;;;;;;1.30;0.10;;;19.00;45.30;;;;;;5072836;28;20516;-56
2021/12/08 12:16:44;;;;;;;1.15;0.22;;;19.00;45.20;;;;;;5085038;28;20050;-55
2021/12/08 12:19:16;;;;;;;2.85;0.20;;;19.00;45.10;;;;;;5082752;28;20489;-53
2021/12/08 12:21:58;;;;;;;2.47;0.45;;;19.00;45.00;;;;;;5075720;28;20047;-54
2021/12/08 12:24:54;;;;;;;0.85;0.10;;;19.10;45.20;;;;;;5075622;28;20048;-55
2021/12/08 12:27:38;;;;;;;1.10;0.52;;;19.00;45.10;;;;;;5080363;28;20052;-51
2021/12/08 12:30:12;;;;;;;0.85;0.10;;;19.00;45.10;;;;;;5075313;28;20043;-52
2021/12/08 12:32:46;;;;;;;1.90;0.10;;;19.00;45.00;;;;;;5073304;28;20040;-51
2021/12/08 12:35:18;;;;;;;0.40;0.10;;;19.10;45.00;;;;;;5075600;28;20063;-56
2021/12/08 12:37:49;;;;;;;2.63;0.30;;;19.10;45.00;;;;;;5086007;28;20063;-54
2021/12/08 12:40:20;;;;;;;0.95;0.10;;;19.20;44.90;;;;;;5078596;28;20051;-57
2021/12/08 12:42:51;;;;;;;1.00;0.30;;;19.20;44.80;;;;;;5077504;28;20040;-54
2021/12/08 12:45:20;;;;;;;1.25;0.10;;;19.30;44.80;;;;;;5083857;28;20044;-55
2021/12/08 12:48:10;;;;;;;0.22;0.10;;;19.30;44.70;;;;;;5077443;28;20063;-55
2021/12/08 12:51:05;;;;;;;2.67;0.30;;;19.40;44.60;;;;;;5072360;28;20039;-55
2021/12/08 12:53:45;;;;;;;1.08;0.30;;;19.40;44.50;;;;;;5039334;28;20049;-56
2021/12/08 12:56:15;;;;;;;0.60;0.10;;;19.40;44.50;;;;;;5039935;28;20040;-57
2021/12/08 12:58:46;;;;;;;0.30;0.10;;;19.40;44.50;;;;;;5040710;28;20110;-56
2021/12/08 13:01:15;;;;;;;1.23;0.38;;;19.40;44.30;;;;;;5033136;28;20551;-56
2021/12/08 13:03:48;;;;;;;0.98;0.10;;;19.40;44.20;;;;;;5033476;28;20506;-54
2021/12/08 13:06:16;;;;;;;0.52;0.10;;;19.50;44.10;;;;;;5029127;28;20140;-55
2021/12/08 13:08:49;;;;;;;0.63;0.10;;;19.50;44.00;;;;;;5029817;28;20649;-56
2021/12/08 13:11:58;;;;;;;0.52;0.10;;;19.50;43.80;;;;;;5026952;28;20049;-57
2021/12/08 13:14:28;;;;;;;3.05;1.00;;;19.50;43.70;;;;;;5033696;28;26513;-54
2021/12/08 13:17:10;;;;;;;1.73;0.13;;;19.40;43.80;;;;;;5027222;28;20136;-55
2021/12/08 13:19:43;;;;;;;0.47;0.10;;;19.30;43.70;;;;;;5028031;28;20153;-56
2021/12/08 13:22:10;;;;;;;0.20;0.10;;;19.30;43.70;;;;;;5035063;28;20052;-56
2021/12/08 13:24:42;;;;;;;2.05;0.20;;;19.20;43.70;;;;;;5036274;28;20041;-56
2021/12/08 13:27:11;;;;;;;1.30;0.10;;;19.20;43.70;;;;;;5031508;28;20304;-54
2021/12/08 13:29:41;;;;;;;0.52;0.10;;;19.10;43.80;;;;;;5053755;28;20044;-56
2021/12/08 13:32:11;;;;;;;0.80;0.10;;;19.10;43.90;;;;;;5072912;28;20052;-57
2021/12/08 13:34:41;;;;;;;0.10;0.10;;;19.00;43.70;;;;;;5075737;28;20040;-55
2021/12/08 13:37:17;;;;;;;0.75;0.10;;;19.00;43.90;;;;;;5080654;28;20068;-54